createdAt,value
2019-05-21T00:00:21.113Z,99180.10
2019-05-21T00:02:50.135Z,99184.36
2019-05-21T00:05:18.796Z,99175.81
2019-05-21T00:07:47.516Z,99183.86
2019-05-21T00:10:16.328Z,99191.94
2019-05-21T00:12:45.008Z,99184.48
2019-05-21T00:15:13.885Z,99180.74
2019-05-21T00:17:42.563Z,99181.28
2019-05-21T00:20:12.936Z,99182.89
2019-05-21T00:22:41.897Z,99177.03
2019-05-21T00:25:10.653Z,99174.11
2019-05-21T00:27:39.352Z,99169.08
2019-05-21T00:30:44.064Z,99172.59
2019-05-21T00:33:49.034Z,99171.52
2019-05-21T00:36:57.787Z,99162.38
2019-05-21T00:40:03.039Z,99144.98
2019-05-21T00:42:35.705Z,99160.08
2019-05-21T00:45:06.329Z,99155.78
2019-05-21T00:47:34.997Z,99151.45
2019-05-21T00:50:04.235Z,99156.52
2019-05-21T00:52:32.907Z,99160.56
2019-05-21T00:55:01.615Z,99170.99
2019-05-21T00:57:30.279Z,99181.99
2019-05-21T00:59:59.292Z,99179.06
2019-05-21T01:02:27.983Z,99184.71
2019-05-21T01:05:00.653Z,99193.06
2019-05-21T01:07:27.155Z,99196.30
2019-05-21T01:09:56.117Z,99195.81
2019-05-21T01:14:55.985Z,99191.27
2019-05-21T01:17:24.646Z,99187.05
2019-05-21T01:19:53.301Z,99188.39
2019-05-21T01:22:21.986Z,99194.61
2019-05-21T01:24:50.676Z,99189.47
2019-05-21T01:27:19.342Z,99189.45
2019-05-21T01:29:48.013Z,99184.69
2019-05-21T01:32:16.703Z,99189.85
2019-05-21T01:34:45.371Z,99192.28
2019-05-21T01:37:14.079Z,99201.63
2019-05-21T01:39:42.742Z,99198.69
2019-05-21T01:42:11.414Z,99197.34
2019-05-21T01:44:40.098Z,99199.23
2019-05-21T01:47:08.767Z,99208.06
2019-05-21T01:49:37.454Z,99205.94
2019-05-21T01:52:06.156Z,99207.57
2019-05-21T01:54:34.847Z,99211.30
2019-05-21T01:57:03.656Z,99203.29
2019-05-21T01:59:32.331Z,99203.57
2019-05-21T02:02:00.995Z,99198.20
2019-05-21T02:04:29.710Z,99198.73
2019-05-21T02:06:58.442Z,99192.55
2019-05-21T02:09:27.171Z,99207.28
2019-05-21T02:11:55.845Z,99202.99
2019-05-21T02:14:24.619Z,99201.66
2019-05-21T02:16:53.543Z,99199.55
2019-05-21T02:19:22.212Z,99208.42
2019-05-21T02:21:50.965Z,99209.50
2019-05-21T02:24:19.638Z,99208.99
2019-05-21T02:26:48.304Z,99222.09
2019-05-21T02:29:16.968Z,99212.16
2019-05-21T02:31:45.647Z,99212.16
2019-05-21T02:34:14.308Z,99211.59
2019-05-21T02:36:42.973Z,99216.94
2019-05-21T02:39:11.666Z,99224.69
2019-05-21T02:41:40.328Z,99223.11
2019-05-21T02:44:08.997Z,99233.27
2019-05-21T02:46:37.675Z,99234.62
2019-05-21T02:49:06.350Z,99233.56
2019-05-21T02:51:35.031Z,99227.94
2019-05-21T02:54:03.701Z,99234.62
2019-05-21T02:56:32.381Z,99232.23
2019-05-21T02:59:01.065Z,99235.45
2019-05-21T03:01:36.055Z,99235.69
2019-05-21T03:04:04.830Z,99234.63
2019-05-21T03:06:33.582Z,99233.06
2019-05-21T03:09:02.243Z,99233.87
2019-05-21T03:11:30.933Z,99241.09
2019-05-21T03:13:59.716Z,99245.62
2019-05-21T03:16:28.381Z,99241.03
2019-05-21T03:18:57.068Z,99245.61
2019-05-21T03:21:25.769Z,99254.72
2019-05-21T03:23:54.429Z,99250.48
2019-05-21T03:26:23.095Z,99265.48
2019-05-21T03:28:51.799Z,99261.20
2019-05-21T03:31:20.466Z,99257.21
2019-05-21T03:33:49.143Z,99256.16
2019-05-21T03:36:32.560Z,99267.42
2019-05-21T03:38:48.445Z,99263.18
2019-05-21T03:41:17.125Z,99267.70
2019-05-21T03:43:45.999Z,99270.64
2019-05-21T03:46:14.725Z,99268.74
2019-05-21T03:48:43.386Z,99268.75
2019-05-21T03:51:12.087Z,99272.22
2019-05-21T03:53:40.746Z,99275.16
2019-05-21T03:56:09.428Z,99266.34
2019-05-21T03:58:38.094Z,99273.55
2019-05-21T04:01:06.776Z,99275.43
2019-05-21T04:03:35.626Z,99284.78
2019-05-21T04:06:04.492Z,99287.73
2019-05-21T04:08:33.160Z,99282.12
2019-05-21T04:11:01.822Z,99279.72
2019-05-21T04:13:30.489Z,99277.84
2019-05-21T04:16:33.375Z,99282.92
2019-05-21T04:19:08.658Z,99282.42
2019-05-21T04:21:37.337Z,99292.85
2019-05-21T04:24:08.629Z,99291.55
2019-05-21T04:26:36.421Z,99288.05
2019-05-21T04:29:05.253Z,99292.06
2019-05-21T04:31:33.924Z,99293.68
2019-05-21T04:34:02.639Z,99287.28
2019-05-21T04:36:31.298Z,99291.84
2019-05-21T04:38:59.980Z,99296.62
2019-05-21T04:41:28.646Z,99302.77
2019-05-21T04:43:57.386Z,99303.59
2019-05-21T04:46:26.050Z,99310.00
2019-05-21T04:48:54.730Z,99310.52
2019-05-21T04:51:23.399Z,99314.53
2019-05-21T04:53:52.059Z,99312.91
2019-05-21T04:56:20.746Z,99310.23
2019-05-21T04:58:49.397Z,99311.58
2019-05-21T05:01:18.089Z,99316.41
2019-05-21T05:03:46.764Z,99312.12
2019-05-21T05:06:15.437Z,99317.47
2019-05-21T05:08:44.122Z,99329.23
2019-05-21T05:11:12.814Z,99321.20
2019-05-21T05:13:41.494Z,99313.69
2019-05-21T05:16:10.184Z,99320.13
2019-05-21T05:18:38.875Z,99311.28
2019-05-21T05:21:07.634Z,99321.69
2019-05-21T05:23:36.301Z,99321.42
2019-05-21T05:26:05.246Z,99333.47
2019-05-21T05:28:33.919Z,99340.44
2019-05-21T05:31:02.607Z,99342.05
2019-05-21T05:33:31.291Z,99336.70
2019-05-21T05:35:59.980Z,99338.04
2019-05-21T05:38:28.681Z,99343.67
2019-05-21T05:40:57.375Z,99345.02
2019-05-21T05:43:26.041Z,99355.20
2019-05-21T05:45:54.718Z,99355.98
2019-05-21T05:48:23.674Z,99358.66
2019-05-21T05:50:54.409Z,99362.39
2019-05-21T05:53:23.085Z,99361.84
2019-05-21T05:55:51.770Z,99356.77
2019-05-21T05:58:20.439Z,99367.47
2019-05-21T06:00:49.192Z,99366.12
2019-05-21T06:03:17.902Z,99368.78
2019-05-21T06:05:46.572Z,99365.58
2019-05-21T06:08:15.312Z,99373.64
2019-05-21T06:10:43.968Z,99377.38
2019-05-21T06:13:12.632Z,99378.17
2019-05-21T06:15:41.327Z,99375.50
2019-05-21T06:18:12.478Z,99381.63
2019-05-21T06:20:44.478Z,99396.61
2019-05-21T06:23:16.521Z,99395.78
2019-05-21T06:25:47.461Z,99404.63
2019-05-21T06:28:19.460Z,99405.42
2019-05-21T06:30:49.559Z,99411.06
2019-05-21T06:33:20.934Z,99404.38
2019-05-21T06:35:52.461Z,99412.67
2019-05-21T06:38:23.539Z,99402.25
2019-05-21T06:40:52.650Z,99412.67
2019-05-21T06:43:21.321Z,99422.82
2019-05-21T06:45:50.143Z,99424.98
2019-05-21T06:48:18.798Z,99427.11
2019-05-21T06:50:47.482Z,99422.04
2019-05-21T06:53:16.164Z,99435.41
2019-05-21T06:55:44.858Z,99433.29
2019-05-21T06:58:13.556Z,99444.27
2019-05-21T07:00:42.253Z,99444.81
2019-05-21T07:03:10.907Z,99442.42
2019-05-21T07:05:56.104Z,99443.75
2019-05-21T07:08:09.994Z,99451.53
2019-05-21T07:10:38.662Z,99454.45
2019-05-21T07:13:09.842Z,99463.00
2019-05-21T07:15:38.595Z,99462.72
2019-05-21T07:18:07.304Z,99464.61
2019-05-21T07:20:35.985Z,99464.84
2019-05-21T07:23:04.931Z,99469.92
2019-05-21T07:25:33.801Z,99474.17
2019-05-21T07:28:02.463Z,99470.44
2019-05-21T07:30:31.156Z,99479.80
2019-05-21T07:32:59.910Z,99483.30
2019-05-21T07:35:28.685Z,99478.74
2019-05-21T07:37:57.375Z,99488.38
2019-05-21T07:40:26.031Z,99489.20
2019-05-21T07:42:54.694Z,99483.82
2019-05-21T07:45:23.407Z,99476.61
2019-05-21T07:47:52.045Z,99496.09
2019-05-21T07:50:20.709Z,99492.58
2019-05-21T07:52:49.398Z,99502.74
2019-05-21T07:55:18.200Z,99497.66
2019-05-21T07:57:46.909Z,99503.25
2019-05-21T08:00:16.275Z,99505.64
2019-05-21T08:02:44.958Z,99505.69
2019-05-21T08:05:13.776Z,99504.07
2019-05-21T08:07:42.450Z,99504.85
2019-05-21T08:10:11.298Z,99510.18
2019-05-21T08:12:40.183Z,99515.02
2019-05-21T08:15:09.703Z,99516.84
2019-05-21T08:17:38.415Z,99521.64
2019-05-21T08:20:10.224Z,99518.91
2019-05-21T08:22:38.727Z,99519.75
2019-05-21T08:25:07.666Z,99530.19
2019-05-21T08:27:36.342Z,99535.25
2019-05-21T08:30:06.109Z,99534.22
2019-05-21T08:32:34.769Z,99534.76
2019-05-21T08:35:03.527Z,99541.73
2019-05-21T08:37:32.234Z,99537.95
2019-05-21T08:40:00.978Z,99527.98
2019-05-21T08:42:29.645Z,99534.52
2019-05-21T08:44:58.302Z,99527.84
2019-05-21T08:47:27.042Z,99535.80
2019-05-21T08:49:55.727Z,99543.00
2019-05-21T08:52:24.396Z,99536.07
2019-05-21T08:54:56.093Z,99538.30
2019-05-21T08:57:23.567Z,99535.00
2019-05-21T08:59:52.502Z,99539.27
2019-05-21T09:02:21.166Z,99540.50
2019-05-21T09:04:49.923Z,99546.33
2019-05-21T09:07:18.804Z,99546.14
2019-05-21T09:09:50.583Z,99552.16
2019-05-21T09:12:18.066Z,99558.92
2019-05-21T09:14:46.835Z,99565.16
2019-05-21T09:17:15.579Z,99564.14
2019-05-21T09:19:44.260Z,99567.22
2019-05-21T09:22:13.024Z,99573.92
2019-05-21T09:24:41.715Z,99576.23
2019-05-21T09:27:10.381Z,99566.37
2019-05-21T09:29:39.056Z,99577.38
2019-05-21T09:32:07.804Z,99582.56
2019-05-21T09:34:47.963Z,99591.11
2019-05-21T09:37:19.274Z,99588.72
2019-05-21T09:39:37.512Z,99592.78
2019-05-21T09:42:06.169Z,99601.05
2019-05-21T09:44:34.901Z,99598.37
2019-05-21T09:47:03.648Z,99601.25
2019-05-21T09:49:32.389Z,99610.95
2019-05-21T09:52:01.051Z,99616.35
2019-05-21T09:54:29.726Z,99615.31
2019-05-21T09:56:58.813Z,99626.31
2019-05-21T09:59:52.497Z,99625.55
2019-05-21T10:02:23.118Z,99614.59
2019-05-21T10:04:51.883Z,99623.93
2019-05-21T10:07:38.037Z,99623.19
2019-05-21T10:09:51.005Z,99624.81
2019-05-21T10:12:19.672Z,99631.00
2019-05-21T10:14:48.326Z,99633.91
2019-05-21T10:17:17.130Z,99633.06
2019-05-21T10:19:45.791Z,99638.71
2019-05-21T10:22:14.538Z,99640.29
2019-05-21T10:24:43.202Z,99647.20
2019-05-21T10:27:11.879Z,99648.27
2019-05-21T10:29:40.538Z,99650.95
2019-05-21T10:32:09.514Z,99651.72
2019-05-21T10:34:38.234Z,99656.25
2019-05-21T10:37:07.038Z,99656.30
2019-05-21T10:39:36.041Z,99658.19
2019-05-21T10:42:05.068Z,99663.00
2019-05-21T10:44:33.810Z,99658.98
2019-05-21T10:47:02.481Z,99658.49
2019-05-21T10:49:31.166Z,99663.58
2019-05-21T10:51:59.863Z,99654.73
2019-05-21T10:54:28.631Z,99650.92
2019-05-21T10:56:57.293Z,99655.39
2019-05-21T10:59:26.047Z,99663.67
2019-05-21T11:02:29.178Z,99666.47
2019-05-21T11:05:04.673Z,99664.20
2019-05-21T11:07:33.473Z,99668.09
2019-05-21T11:10:02.466Z,99675.79
2019-05-21T11:12:31.360Z,99678.47
2019-05-21T11:15:00.008Z,99678.48
2019-05-21T11:17:28.686Z,99682.89
2019-05-21T11:19:57.360Z,99685.80
2019-05-21T11:22:26.117Z,99691.20
2019-05-21T11:24:54.785Z,99703.30
2019-05-21T11:27:23.620Z,99704.27
2019-05-21T11:29:52.293Z,99710.25
2019-05-21T11:32:21.029Z,99712.20
2019-05-21T11:34:50.473Z,99709.59
2019-05-21T11:37:19.396Z,99716.23
2019-05-21T11:39:48.051Z,99709.25
2019-05-21T11:42:16.709Z,99718.55
2019-05-21T11:44:45.413Z,99717.85
2019-05-21T11:47:14.076Z,99718.55
2019-05-21T11:49:42.743Z,99726.34
2019-05-21T11:52:11.898Z,99727.41
2019-05-21T11:54:40.569Z,99731.25
2019-05-21T11:57:09.235Z,99731.25
2019-05-21T11:59:37.910Z,99733.63
2019-05-21T12:02:08.812Z,99745.80
2019-05-21T12:04:37.487Z,99738.20
2019-05-21T12:07:06.219Z,99753.23
2019-05-21T12:09:34.970Z,99746.84
2019-05-21T12:12:03.660Z,99750.55
2019-05-21T12:14:32.334Z,99752.36
2019-05-21T12:17:00.993Z,99745.28
2019-05-21T12:19:29.676Z,99749.09
2019-05-21T12:21:58.347Z,99755.63
2019-05-21T12:24:27.685Z,99754.30
2019-05-21T12:26:56.567Z,99758.50
2019-05-21T12:29:25.317Z,99760.18
2019-05-21T12:31:53.967Z,99750.56
2019-05-21T12:34:22.705Z,99761.56
2019-05-21T12:36:51.407Z,99768.36
2019-05-21T12:39:20.149Z,99768.88
2019-05-21T12:41:48.800Z,99787.19
2019-05-21T12:44:17.518Z,99784.23
2019-05-21T12:46:46.262Z,99788.80
2019-05-21T12:49:15.090Z,99791.73
2019-05-21T12:51:43.971Z,99798.98
2019-05-21T12:54:12.659Z,99799.50
2019-05-21T12:56:41.444Z,99797.36
2019-05-21T12:59:10.076Z,99807.56
2019-05-21T13:01:38.727Z,99818.25
2019-05-21T13:04:07.413Z,99817.95
2019-05-21T13:06:36.079Z,99808.80
2019-05-21T13:09:08.195Z,99817.36
2019-05-21T13:11:37.165Z,99820.31
2019-05-21T13:14:06.305Z,99818.69
2019-05-21T13:16:35.285Z,99824.28
2019-05-21T13:19:04.299Z,99820.59
2019-05-21T13:21:33.046Z,99829.70
2019-05-21T13:24:01.727Z,99823.82
2019-05-21T13:26:30.431Z,99828.61
2019-05-21T13:28:59.178Z,99843.34
2019-05-21T13:31:27.924Z,99842.77
2019-05-21T13:33:56.613Z,99837.43
2019-05-21T13:36:25.290Z,99837.42
2019-05-21T13:38:53.947Z,99841.47
2019-05-21T13:41:22.699Z,99841.50
2019-05-21T13:43:51.361Z,99847.41
2019-05-21T13:46:20.096Z,99853.84
2019-05-21T13:48:48.772Z,99853.38
2019-05-21T13:51:17.483Z,99852.31
2019-05-21T13:53:46.197Z,99853.91
2019-05-21T13:56:15.210Z,99847.72
2019-05-21T13:58:44.228Z,99852.05
2019-05-21T14:01:16.109Z,99853.38
2019-05-21T14:03:44.935Z,99866.72
2019-05-21T14:06:13.628Z,99862.41
2019-05-21T14:08:42.419Z,99869.66
2019-05-21T14:11:11.530Z,99871.24
2019-05-21T14:13:40.285Z,99871.20
2019-05-21T14:16:08.966Z,99876.81
2019-05-21T14:18:37.625Z,99871.77
2019-05-21T14:21:06.310Z,99871.20
2019-05-21T14:23:34.983Z,99885.86
2019-05-21T14:26:03.852Z,99881.01
2019-05-21T14:28:34.563Z,99889.01
2019-05-21T14:31:03.391Z,99886.83
2019-05-21T14:33:32.102Z,99882.55
2019-05-21T14:36:00.786Z,99886.30
2019-05-21T14:38:29.661Z,99884.70
2019-05-21T14:40:58.424Z,99881.45
2019-05-21T14:43:27.255Z,99886.34
2019-05-21T14:45:55.925Z,99896.80
2019-05-21T14:48:24.628Z,99895.99
2019-05-21T14:50:53.288Z,99905.27
2019-05-21T14:53:21.998Z,99898.25
2019-05-21T14:55:50.674Z,99905.72
2019-05-21T14:58:19.344Z,99910.00
2019-05-21T15:00:48.209Z,99909.98
2019-05-21T15:03:24.898Z,99912.66
2019-05-21T15:05:47.379Z,99903.81
2019-05-21T15:08:16.086Z,99900.59
2019-05-21T15:10:57.492Z,99900.13
2019-05-21T15:13:26.143Z,99900.94
2019-05-21T15:15:54.820Z,99899.88
2019-05-21T15:18:23.678Z,99898.59
2019-05-21T15:21:14.752Z,99899.19
2019-05-21T15:23:43.940Z,99898.73
2019-05-21T15:26:13.198Z,99899.28
2019-05-21T15:28:41.927Z,99901.20
2019-05-21T15:31:10.591Z,99896.41
2019-05-21T15:33:39.290Z,99898.88
2019-05-21T15:36:08.028Z,99898.92
2019-05-21T15:38:49.231Z,99907.55
2019-05-21T15:41:11.920Z,99903.53
2019-05-21T15:43:37.512Z,99906.75
2019-05-21T15:46:06.250Z,99903.79
2019-05-21T15:48:34.910Z,99904.85
2019-05-21T15:51:03.663Z,99909.41
2019-05-21T15:53:32.341Z,99909.67
2019-05-21T15:56:01.015Z,99909.95
2019-05-21T15:58:29.792Z,99920.62
2019-05-21T16:00:58.607Z,99920.36
2019-05-21T16:03:27.282Z,99930.78
2019-05-21T16:05:55.961Z,99926.54
2019-05-21T16:08:24.636Z,99919.84
2019-05-21T16:10:53.403Z,99922.28
2019-05-21T16:13:22.088Z,99918.80
2019-05-21T16:15:50.776Z,99919.58
2019-05-21T16:18:19.457Z,99920.38
2019-05-21T16:20:48.122Z,99917.18
2019-05-21T16:23:16.887Z,99922.00
2019-05-21T16:25:45.545Z,99916.63
2019-05-21T16:28:14.286Z,99924.15
2019-05-21T16:30:42.964Z,99920.12
2019-05-21T16:33:11.654Z,99925.11
2019-05-21T16:35:40.333Z,99927.28
2019-05-21T16:38:09.006Z,99929.36
2019-05-21T16:40:37.775Z,99934.96
2019-05-21T16:43:06.426Z,99932.28
2019-05-21T16:45:35.153Z,99934.42
2019-05-21T16:48:03.851Z,99929.59
2019-05-21T16:50:32.545Z,99933.10
2019-05-21T16:53:01.210Z,99934.70
2019-05-21T16:55:29.947Z,99933.37
2019-05-21T16:57:58.713Z,99941.39
2019-05-21T17:00:28.571Z,99937.66
2019-05-21T17:02:57.315Z,99938.14
2019-05-21T17:05:26.084Z,99935.21
2019-05-21T17:07:54.765Z,99944.34
2019-05-21T17:10:23.440Z,99936.59
2019-05-21T17:12:52.406Z,99937.42
2019-05-21T17:15:21.264Z,99942.78
2019-05-21T17:17:49.934Z,99943.86
2019-05-21T17:20:18.769Z,99950.56
2019-05-21T17:22:47.431Z,99947.86
2019-05-21T17:25:16.442Z,99951.11
2019-05-21T17:27:45.160Z,99952.68
2019-05-21T17:30:14.277Z,99966.17
2019-05-21T17:32:43.079Z,99958.64
2019-05-21T17:35:12.382Z,99969.36
2019-05-21T17:37:41.034Z,99960.50
2019-05-21T17:40:11.867Z,99964.21
2019-05-21T17:42:40.537Z,99966.40
2019-05-21T17:45:09.854Z,99961.52
2019-05-21T17:47:38.624Z,99959.12
2019-05-21T17:50:09.233Z,99965.27
2019-05-21T17:52:38.397Z,99960.97
2019-05-21T17:55:07.893Z,99958.06
2019-05-21T17:57:37.743Z,99964.21
2019-05-21T18:00:08.013Z,99962.06
2019-05-21T18:02:36.966Z,99968.75
2019-05-21T18:05:07.378Z,99969.58
2019-05-21T18:07:36.939Z,99975.20
2019-05-21T18:10:06.785Z,99981.90
2019-05-21T18:12:36.284Z,99970.09
2019-05-21T18:15:05.874Z,99975.72
2019-05-21T18:17:34.780Z,99977.32
2019-05-21T18:20:04.429Z,99983.73
2019-05-21T18:22:33.112Z,99986.97
2019-05-21T18:25:01.865Z,99986.95
2019-05-21T18:27:30.918Z,99990.19
2019-05-21T18:30:03.194Z,99989.89
2019-05-21T18:32:30.089Z,99996.85
2019-05-21T18:34:58.814Z,100011.04
2019-05-21T18:37:28.070Z,100000.88
2019-05-21T18:39:56.767Z,100004.09
2019-05-21T18:42:25.484Z,100004.61
2019-05-21T18:44:54.224Z,100008.89
2019-05-21T18:47:22.978Z,100019.34
2019-05-21T18:49:51.746Z,100021.20
2019-05-21T18:52:20.505Z,100016.64
2019-05-21T18:54:49.553Z,100018.23
2019-05-21T18:57:18.252Z,100027.60
2019-05-21T18:59:46.939Z,100027.84
2019-05-21T19:02:15.606Z,100030.03
2019-05-21T19:04:44.295Z,100028.16
2019-05-21T19:07:14.009Z,100034.58
2019-05-21T19:09:42.842Z,100039.16
2019-05-21T19:12:11.647Z,100040.75
2019-05-21T19:14:44.757Z,100041.00
2019-05-21T19:17:10.781Z,100045.01
2019-05-21T19:19:39.445Z,100049.81
2019-05-21T19:22:08.370Z,100055.95
2019-05-21T19:24:37.052Z,100050.09
2019-05-21T19:27:05.792Z,100067.48
2019-05-21T19:29:34.560Z,100064.80
2019-05-21T19:32:03.680Z,100071.45
2019-05-21T19:34:32.353Z,100065.28
2019-05-21T19:37:01.039Z,100078.67
2019-05-21T19:39:30.333Z,100085.09
2019-05-21T19:41:59.002Z,100088.33
2019-05-21T19:44:27.968Z,100086.16
2019-05-21T19:46:56.658Z,100088.80
2019-05-21T19:49:25.346Z,100098.70
2019-05-21T19:51:54.057Z,100097.36
2019-05-21T19:54:23.854Z,100098.16
2019-05-21T19:56:52.540Z,100097.36
2019-05-21T19:59:21.575Z,100100.27
2019-05-21T20:01:51.170Z,100102.17
2019-05-21T20:04:21.969Z,100110.23
2019-05-21T20:06:50.818Z,100116.09
2019-05-21T20:09:21.324Z,100113.74
2019-05-21T20:11:50.093Z,100112.91
2019-05-21T20:14:19.436Z,100116.92
2019-05-21T20:16:48.729Z,100123.35
2019-05-21T20:19:19.466Z,100116.09
2019-05-21T20:21:48.355Z,100127.63
2019-05-21T20:24:17.900Z,100126.50
2019-05-21T20:26:46.875Z,100133.45
2019-05-21T20:29:15.960Z,100142.56
2019-05-21T20:31:44.719Z,100128.89
2019-05-21T20:34:13.469Z,100132.37
2019-05-21T20:36:42.417Z,100131.80
2019-05-21T20:39:14.634Z,100131.78
2019-05-21T20:41:43.418Z,100139.79
2019-05-21T20:44:14.391Z,100132.25
2019-05-21T20:46:44.064Z,100130.62
2019-05-21T20:49:13.386Z,100137.85
2019-05-21T20:51:42.410Z,100140.02
2019-05-21T20:54:13.290Z,100138.39
2019-05-21T20:56:42.493Z,100140.73
2019-05-21T20:59:11.469Z,100146.37
2019-05-21T21:01:41.901Z,100146.63
2019-05-21T21:04:11.214Z,100147.70
2019-05-21T21:06:40.728Z,100147.91
2019-05-21T21:09:10.293Z,100138.29
2019-05-21T21:11:39.669Z,100147.37
2019-05-21T21:14:18.144Z,100141.20
2019-05-21T21:16:39.918Z,100147.37
2019-05-21T21:19:08.597Z,100142.25
2019-05-21T21:21:37.413Z,100140.62
2019-05-21T21:24:06.584Z,100140.34
2019-05-21T21:26:35.650Z,100153.72
2019-05-21T21:29:04.574Z,100142.45
2019-05-21T21:31:33.392Z,100140.28
2019-05-21T21:34:02.074Z,100144.52
2019-05-21T21:36:30.837Z,100152.52
2019-05-21T21:38:59.675Z,100154.91
2019-05-21T21:41:28.702Z,100150.86
2019-05-21T21:43:57.377Z,100160.22
2019-05-21T21:46:26.350Z,100151.34
2019-05-21T21:48:55.408Z,100151.88
2019-05-21T21:51:24.692Z,100158.50
2019-05-21T21:53:53.554Z,100162.52
2019-05-21T21:56:22.673Z,100165.41
2019-05-21T21:58:51.498Z,100163.59
2019-05-21T22:01:47.137Z,100164.14
2019-05-21T22:04:20.280Z,100164.14
2019-05-21T22:06:50.161Z,100165.47
2019-05-21T22:09:24.482Z,100167.00
2019-05-21T22:11:55.102Z,100169.42
2019-05-21T22:14:23.973Z,100167.80
2019-05-21T22:16:52.661Z,100168.09
2019-05-21T22:19:22.631Z,100148.83
2019-05-21T22:21:52.166Z,100158.66
2019-05-21T22:24:21.503Z,100171.73
2019-05-21T22:26:50.641Z,100174.23
2019-05-21T22:29:19.620Z,100177.95
2019-05-21T22:31:48.382Z,100178.71
2019-05-21T22:34:17.068Z,100182.69
2019-05-21T22:36:45.835Z,100174.73
2019-05-21T22:39:19.347Z,100177.12
2019-05-21T22:41:48.015Z,100180.27
2019-05-21T22:44:16.692Z,100177.88
2019-05-21T22:46:46.147Z,100171.95
2019-05-21T22:49:14.837Z,100164.52
2019-05-21T22:51:43.591Z,100160.22
2019-05-21T22:54:12.374Z,100166.61
2019-05-21T22:56:41.033Z,100166.61
2019-05-21T22:59:09.701Z,100175.14
2019-05-21T23:01:38.401Z,100170.62
2019-05-21T23:04:07.249Z,100175.97
2019-05-21T23:06:36.409Z,100172.46
2019-05-21T23:09:06.677Z,100175.36
2019-05-21T23:11:35.405Z,100174.81
2019-05-21T23:14:04.384Z,100179.59
2019-05-21T23:16:33.441Z,100178.28
2019-05-21T23:19:02.288Z,100183.59
2019-05-21T23:21:31.141Z,100180.38
2019-05-21T23:24:02.227Z,100170.48
2019-05-21T23:26:31.050Z,100182.22
2019-05-21T23:29:01.405Z,100179.80
2019-05-21T23:31:31.182Z,100180.34
2019-05-21T23:34:00.294Z,100178.20
2019-05-21T23:36:28.971Z,100175.25
2019-05-21T23:38:58.979Z,100184.06
2019-05-21T23:41:28.622Z,100186.19
2019-05-21T23:43:57.361Z,100197.68
2019-05-21T23:46:26.639Z,100194.97
2019-05-21T23:48:55.381Z,100193.89
2019-05-21T23:51:24.057Z,100194.50
2019-05-21T23:53:52.722Z,100199.38
2019-05-21T23:56:21.581Z,100203.35
2019-05-21T23:58:50.358Z,100202.27
